sensor_id;sensor_type;location;lat;lon;timestamp;temperature;humidity
9849;DHT22;4963;51.444;6.528;2022-10-24T00:02:27;15.30;99.90
9849;DHT22;4963;51.444;6.528;2022-10-24T00:04:53;15.30;99.90
9849;DHT22;4963;51.444;6.528;2022-10-24T00:07:20;15.30;99.90
9849;DHT22;4963;51.444;6.528;2022-10-24T00:09:47;15.30;99.90
9849;DHT22;4963;51.444;6.528;2022-10-24T00:12:14;15.30;99.90
9849;DHT22;4963;51.444;6.528;2022-10-24T00:14:40;15.20;99.90
9849;DHT22;4963;51.444;6.528;2022-10-24T00:17:09;15.20;99.90
9849;DHT22;4963;51.444;6.528;2022-10-24T00:19:35;15.30;99.90
9849;DHT22;4963;51.444;6.528;2022-10-24T00:22:02;15.30;99.90
9849;DHT22;4963;51.444;6.528;2022-10-24T00:24:29;15.30;99.90
9849;DHT22;4963;51.444;6.528;2022-10-24T00:26:56;15.30;99.90
9849;DHT22;4963;51.444;6.528;2022-10-24T00:29:23;15.20;99.90
9849;DHT22;4963;51.444;6.528;2022-10-24T00:31:50;15.20;99.90
9849;DHT22;4963;51.444;6.528;2022-10-24T00:34:18;15.20;99.90
9849;DHT22;4963;51.444;6.528;2022-10-24T00:36:45;15.20;99.90
9849;DHT22;4963;51.444;6.528;2022-10-24T00:39:12;15.20;99.90
9849;DHT22;4963;51.444;6.528;2022-10-24T00:41:40;15.20;99.90
9849;DHT22;4963;51.444;6.528;2022-10-24T00:44:20;15.20;99.90
9849;DHT22;4963;51.444;6.528;2022-10-24T00:46:51;15.20;99.90
9849;DHT22;4963;51.444;6.528;2022-10-24T00:49:22;15.20;99.90
9849;DHT22;4963;51.444;6.528;2022-10-24T00:51:53;15.20;99.90
9849;DHT22;4963;51.444;6.528;2022-10-24T00:54:22;15.20;99.90
9849;DHT22;4963;51.444;6.528;2022-10-24T00:56:59;15.20;99.90
9849;DHT22;4963;51.444;6.528;2022-10-24T00:59:28;15.20;99.90
9849;DHT22;4963;51.444;6.528;2022-10-24T01:01:55;15.30;99.90
9849;DHT22;4963;51.444;6.528;2022-10-24T01:04:23;15.30;99.90
9849;DHT22;4963;51.444;6.528;2022-10-24T01:07:01;15.30;99.90
9849;DHT22;4963;51.444;6.528;2022-10-24T01:09:41;15.20;99.90
9849;DHT22;4963;51.444;6.528;2022-10-24T01:12:19;15.20;99.90
9849;DHT22;4963;51.444;6.528;2022-10-24T01:14:53;15.20;99.90
9849;DHT22;4963;51.444;6.528;2022-10-24T01:17:26;15.30;99.90
9849;DHT22;4963;51.444;6.528;2022-10-24T01:20:13;15.30;99.90
9849;DHT22;4963;51.444;6.528;2022-10-24T01:22:53;15.30;99.90
9849;DHT22;4963;51.444;6.528;2022-10-24T01:25:32;15.30;99.90
9849;DHT22;4963;51.444;6.528;2022-10-24T01:28:06;15.30;99.90
9849;DHT22;4963;51.444;6.528;2022-10-24T01:30:41;15.30;99.90
9849;DHT22;4963;51.444;6.528;2022-10-24T01:33:13;15.30;99.90
9849;DHT22;4963;51.444;6.528;2022-10-24T01:35:44;15.30;99.90
9849;DHT22;4963;51.444;6.528;2022-10-24T01:38:15;15.30;99.90
9849;DHT22;4963;51.444;6.528;2022-10-24T01:40:48;15.30;99.90
9849;DHT22;4963;51.444;6.528;2022-10-24T01:43:19;15.20;99.90
9849;DHT22;4963;51.444;6.528;2022-10-24T01:45:52;15.20;99.90
9849;DHT22;4963;51.444;6.528;2022-10-24T01:48:22;15.20;99.90
9849;DHT22;4963;51.444;6.528;2022-10-24T01:50:52;15.20;99.90
9849;DHT22;4963;51.444;6.528;2022-10-24T01:53:22;15.10;99.90
9849;DHT22;4963;51.444;6.528;2022-10-24T01:55:51;15.10;99.90
9849;DHT22;4963;51.444;6.528;2022-10-24T01:58:20;15.10;99.90
9849;DHT22;4963;51.444;6.528;2022-10-24T02:00:50;15.10;99.90
9849;DHT22;4963;51.444;6.528;2022-10-24T02:03:21;15.10;99.90
9849;DHT22;4963;51.444;6.528;2022-10-24T02:05:51;15.10;99.90
9849;DHT22;4963;51.444;6.528;2022-10-24T02:08:23;15.00;99.90
9849;DHT22;4963;51.444;6.528;2022-10-24T02:10:53;15.00;99.90
9849;DHT22;4963;51.444;6.528;2022-10-24T02:13:25;15.00;99.90
9849;DHT22;4963;51.444;6.528;2022-10-24T02:15:57;14.90;99.90
9849;DHT22;4963;51.444;6.528;2022-10-24T02:18:25;14.90;99.90
9849;DHT22;4963;51.444;6.528;2022-10-24T02:20:54;14.90;99.90
9849;DHT22;4963;51.444;6.528;2022-10-24T02:23:28;14.90;99.90
9849;DHT22;4963;51.444;6.528;2022-10-24T02:25:59;14.90;99.90
9849;DHT22;4963;51.444;6.528;2022-10-24T02:28:30;14.80;99.90
9849;DHT22;4963;51.444;6.528;2022-10-24T02:31:04;14.80;99.90
9849;DHT22;4963;51.444;6.528;2022-10-24T02:33:33;14.80;99.90
9849;DHT22;4963;51.444;6.528;2022-10-24T02:36:03;14.80;99.90
9849;DHT22;4963;51.444;6.528;2022-10-24T02:38:32;14.80;99.90
9849;DHT22;4963;51.444;6.528;2022-10-24T02:41:04;14.70;99.90
9849;DHT22;4963;51.444;6.528;2022-10-24T02:43:34;14.70;99.90
9849;DHT22;4963;51.444;6.528;2022-10-24T02:46:03;14.70;99.90
9849;DHT22;4963;51.444;6.528;2022-10-24T02:48:33;14.60;99.90
9849;DHT22;4963;51.444;6.528;2022-10-24T02:51:02;14.70;99.90
9849;DHT22;4963;51.444;6.528;2022-10-24T02:53:29;14.70;99.90
9849;DHT22;4963;51.444;6.528;2022-10-24T02:55:56;14.70;99.90
9849;DHT22;4963;51.444;6.528;2022-10-24T02:58:23;14.70;99.90
9849;DHT22;4963;51.444;6.528;2022-10-24T03:00:50;14.70;99.90
9849;DHT22;4963;51.444;6.528;2022-10-24T03:03:18;14.70;99.90
9849;DHT22;4963;51.444;6.528;2022-10-24T03:05:46;14.70;99.90
9849;DHT22;4963;51.444;6.528;2022-10-24T03:08:13;14.60;99.90
9849;DHT22;4963;51.444;6.528;2022-10-24T03:10:40;14.60;99.90
9849;DHT22;4963;51.444;6.528;2022-10-24T03:13:07;14.70;99.90
9849;DHT22;4963;51.444;6.528;2022-10-24T03:15:34;14.60;99.90
9849;DHT22;4963;51.444;6.528;2022-10-24T03:18:01;14.60;99.90
9849;DHT22;4963;51.444;6.528;2022-10-24T03:20:29;14.50;99.90
9849;DHT22;4963;51.444;6.528;2022-10-24T03:22:55;14.50;99.90
9849;DHT22;4963;51.444;6.528;2022-10-24T03:25:22;14.50;99.90
9849;DHT22;4963;51.444;6.528;2022-10-24T03:27:49;14.50;99.90
9849;DHT22;4963;51.444;6.528;2022-10-24T03:30:16;14.40;99.90
9849;DHT22;4963;51.444;6.528;2022-10-24T03:32:43;14.40;99.90
9849;DHT22;4963;51.444;6.528;2022-10-24T03:35:09;14.40;99.90
9849;DHT22;4963;51.444;6.528;2022-10-24T03:37:38;14.40;99.90
9849;DHT22;4963;51.444;6.528;2022-10-24T03:40:05;14.40;99.90
9849;DHT22;4963;51.444;6.528;2022-10-24T03:42:32;14.40;99.90
9849;DHT22;4963;51.444;6.528;2022-10-24T03:44:59;14.40;99.90
9849;DHT22;4963;51.444;6.528;2022-10-24T03:47:26;14.40;99.90
9849;DHT22;4963;51.444;6.528;2022-10-24T03:49:53;14.40;99.90
9849;DHT22;4963;51.444;6.528;2022-10-24T03:52:19;14.40;99.90
9849;DHT22;4963;51.444;6.528;2022-10-24T03:54:48;14.40;99.90
9849;DHT22;4963;51.444;6.528;2022-10-24T03:57:14;14.40;99.90
9849;DHT22;4963;51.444;6.528;2022-10-24T03:59:41;14.30;99.90
9849;DHT22;4963;51.444;6.528;2022-10-24T04:02:08;14.40;99.90
9849;DHT22;4963;51.444;6.528;2022-10-24T04:04:35;14.30;99.90
9849;DHT22;4963;51.444;6.528;2022-10-24T04:07:02;14.40;99.90
9849;DHT22;4963;51.444;6.528;2022-10-24T04:09:30;14.30;99.90
9849;DHT22;4963;51.444;6.528;2022-10-24T04:11:58;14.30;99.90
9849;DHT22;4963;51.444;6.528;2022-10-24T04:14:25;14.30;99.90
9849;DHT22;4963;51.444;6.528;2022-10-24T04:16:52;14.30;99.90
9849;DHT22;4963;51.444;6.528;2022-10-24T04:19:18;14.30;99.90
9849;DHT22;4963;51.444;6.528;2022-10-24T04:21:45;14.30;99.90
9849;DHT22;4963;51.444;6.528;2022-10-24T04:24:13;14.30;99.90
9849;DHT22;4963;51.444;6.528;2022-10-24T04:26:40;14.30;99.90
9849;DHT22;4963;51.444;6.528;2022-10-24T04:29:08;14.20;99.90
9849;DHT22;4963;51.444;6.528;2022-10-24T04:31:35;14.20;99.90
9849;DHT22;4963;51.444;6.528;2022-10-24T04:34:01;14.20;99.90
9849;DHT22;4963;51.444;6.528;2022-10-24T04:36:29;14.20;99.90
9849;DHT22;4963;51.444;6.528;2022-10-24T04:38:56;14.20;99.90
9849;DHT22;4963;51.444;6.528;2022-10-24T04:41:23;14.20;99.90
9849;DHT22;4963;51.444;6.528;2022-10-24T04:43:51;14.20;99.90
9849;DHT22;4963;51.444;6.528;2022-10-24T04:46:19;14.20;99.90
9849;DHT22;4963;51.444;6.528;2022-10-24T04:48:46;14.20;99.90
9849;DHT22;4963;51.444;6.528;2022-10-24T04:51:12;14.20;99.90
9849;DHT22;4963;51.444;6.528;2022-10-24T04:53:39;14.20;99.90
9849;DHT22;4963;51.444;6.528;2022-10-24T04:56:06;14.20;99.90
9849;DHT22;4963;51.444;6.528;2022-10-24T04:58:33;14.20;99.90
9849;DHT22;4963;51.444;6.528;2022-10-24T05:01:00;14.20;99.90
9849;DHT22;4963;51.444;6.528;2022-10-24T05:03:28;14.30;99.90
9849;DHT22;4963;51.444;6.528;2022-10-24T05:05:55;14.20;99.90
9849;DHT22;4963;51.444;6.528;2022-10-24T05:08:22;14.20;99.90
9849;DHT22;4963;51.444;6.528;2022-10-24T05:10:48;14.20;99.90
9849;DHT22;4963;51.444;6.528;2022-10-24T05:13:15;14.20;99.90
9849;DHT22;4963;51.444;6.528;2022-10-24T05:15:42;14.20;99.90
9849;DHT22;4963;51.444;6.528;2022-10-24T05:18:09;14.20;99.90
9849;DHT22;4963;51.444;6.528;2022-10-24T05:20:38;14.20;99.90
9849;DHT22;4963;51.444;6.528;2022-10-24T05:23:04;14.20;99.90
9849;DHT22;4963;51.444;6.528;2022-10-24T05:25:31;14.20;99.90
9849;DHT22;4963;51.444;6.528;2022-10-24T05:27:58;14.20;99.90
9849;DHT22;4963;51.444;6.528;2022-10-24T05:30:25;14.20;99.90
9849;DHT22;4963;51.444;6.528;2022-10-24T05:32:52;14.20;99.90
9849;DHT22;4963;51.444;6.528;2022-10-24T05:35:18;14.20;99.90
9849;DHT22;4963;51.444;6.528;2022-10-24T05:37:47;14.20;99.90
9849;DHT22;4963;51.444;6.528;2022-10-24T05:40:13;14.20;99.90
9849;DHT22;4963;51.444;6.528;2022-10-24T05:42:40;14.20;99.90
9849;DHT22;4963;51.444;6.528;2022-10-24T05:45:09;14.20;99.90
9849;DHT22;4963;51.444;6.528;2022-10-24T05:47:36;14.30;99.90
9849;DHT22;4963;51.444;6.528;2022-10-24T05:50:03;14.40;99.90
9849;DHT22;4963;51.444;6.528;2022-10-24T05:52:30;14.30;99.90
9849;DHT22;4963;51.444;6.528;2022-10-24T05:54:58;14.40;99.90
9849;DHT22;4963;51.444;6.528;2022-10-24T05:57:25;14.30;99.90
9849;DHT22;4963;51.444;6.528;2022-10-24T05:59:52;14.30;99.90
9849;DHT22;4963;51.444;6.528;2022-10-24T06:02:19;14.30;99.90
9849;DHT22;4963;51.444;6.528;2022-10-24T06:04:46;14.40;99.90
9849;DHT22;4963;51.444;6.528;2022-10-24T06:07:15;14.40;99.90
9849;DHT22;4963;51.444;6.528;2022-10-24T06:09:42;14.40;99.90
9849;DHT22;4963;51.444;6.528;2022-10-24T06:12:11;14.30;99.90
9849;DHT22;4963;51.444;6.528;2022-10-24T06:14:39;14.30;99.90
9849;DHT22;4963;51.444;6.528;2022-10-24T06:17:06;14.30;99.90
9849;DHT22;4963;51.444;6.528;2022-10-24T06:19:36;14.30;99.90
9849;DHT22;4963;51.444;6.528;2022-10-24T06:22:04;14.30;99.90
9849;DHT22;4963;51.444;6.528;2022-10-24T06:24:33;14.30;99.90
9849;DHT22;4963;51.444;6.528;2022-10-24T06:27:00;14.30;99.90
9849;DHT22;4963;51.444;6.528;2022-10-24T06:29:28;14.30;99.90
9849;DHT22;4963;51.444;6.528;2022-10-24T06:31:55;14.30;99.90
9849;DHT22;4963;51.444;6.528;2022-10-24T06:34:22;14.40;99.90
9849;DHT22;4963;51.444;6.528;2022-10-24T06:36:49;14.40;99.90
9849;DHT22;4963;51.444;6.528;2022-10-24T06:39:16;14.50;99.90
9849;DHT22;4963;51.444;6.528;2022-10-24T06:41:42;14.60;99.90
9849;DHT22;4963;51.444;6.528;2022-10-24T06:44:09;14.60;99.90
9849;DHT22;4963;51.444;6.528;2022-10-24T06:46:37;14.70;99.90
9849;DHT22;4963;51.444;6.528;2022-10-24T06:49:04;14.80;99.90
9849;DHT22;4963;51.444;6.528;2022-10-24T06:51:31;14.80;99.90
9849;DHT22;4963;51.444;6.528;2022-10-24T06:53:58;14.90;99.90
9849;DHT22;4963;51.444;6.528;2022-10-24T06:56:25;14.90;99.90
9849;DHT22;4963;51.444;6.528;2022-10-24T06:58:52;14.90;99.90
9849;DHT22;4963;51.444;6.528;2022-10-24T07:01:21;14.90;99.90
9849;DHT22;4963;51.444;6.528;2022-10-24T07:03:49;14.90;99.90
9849;DHT22;4963;51.444;6.528;2022-10-24T07:06:17;15.00;99.90
9849;DHT22;4963;51.444;6.528;2022-10-24T07:08:45;15.00;99.90
9849;DHT22;4963;51.444;6.528;2022-10-24T07:11:12;15.00;99.90
9849;DHT22;4963;51.444;6.528;2022-10-24T07:13:39;15.00;99.90
9849;DHT22;4963;51.444;6.528;2022-10-24T07:16:06;15.00;99.90
9849;DHT22;4963;51.444;6.528;2022-10-24T07:18:33;15.10;99.90
9849;DHT22;4963;51.444;6.528;2022-10-24T07:21:02;15.10;99.90
9849;DHT22;4963;51.444;6.528;2022-10-24T07:23:29;15.10;99.90
9849;DHT22;4963;51.444;6.528;2022-10-24T07:26:00;15.20;99.90
9849;DHT22;4963;51.444;6.528;2022-10-24T07:28:27;15.20;99.90
9849;DHT22;4963;51.444;6.528;2022-10-24T07:30:53;15.30;99.90
9849;DHT22;4963;51.444;6.528;2022-10-24T07:33:20;15.30;99.90
9849;DHT22;4963;51.444;6.528;2022-10-24T07:35:47;15.30;99.90
9849;DHT22;4963;51.444;6.528;2022-10-24T07:38:15;15.30;99.90
9849;DHT22;4963;51.444;6.528;2022-10-24T07:40:43;15.30;99.90
9849;DHT22;4963;51.444;6.528;2022-10-24T07:43:09;15.30;99.90
9849;DHT22;4963;51.444;6.528;2022-10-24T07:45:37;15.30;99.90
9849;DHT22;4963;51.444;6.528;2022-10-24T07:48:05;15.40;99.90
9849;DHT22;4963;51.444;6.528;2022-10-24T07:50:32;15.40;99.90
9849;DHT22;4963;51.444;6.528;2022-10-24T07:52:59;15.40;99.90
9849;DHT22;4963;51.444;6.528;2022-10-24T07:55:27;15.50;99.90
9849;DHT22;4963;51.444;6.528;2022-10-24T07:57:54;15.50;99.90
9849;DHT22;4963;51.444;6.528;2022-10-24T08:00:20;15.60;99.90
9849;DHT22;4963;51.444;6.528;2022-10-24T08:02:47;15.60;99.90
9849;DHT22;4963;51.444;6.528;2022-10-24T08:05:14;15.60;99.90
9849;DHT22;4963;51.444;6.528;2022-10-24T08:07:41;15.60;99.90
9849;DHT22;4963;51.444;6.528;2022-10-24T08:10:10;15.60;99.90
9849;DHT22;4963;51.444;6.528;2022-10-24T08:12:39;15.70;99.90
9849;DHT22;4963;51.444;6.528;2022-10-24T08:15:06;15.70;99.90
9849;DHT22;4963;51.444;6.528;2022-10-24T08:17:33;15.70;99.90
9849;DHT22;4963;51.444;6.528;2022-10-24T08:20:01;15.80;99.90
9849;DHT22;4963;51.444;6.528;2022-10-24T08:22:27;15.80;99.90
9849;DHT22;4963;51.444;6.528;2022-10-24T08:24:54;15.80;99.90
9849;DHT22;4963;51.444;6.528;2022-10-24T08:27:21;15.80;99.90
9849;DHT22;4963;51.444;6.528;2022-10-24T08:29:49;15.80;99.90
9849;DHT22;4963;51.444;6.528;2022-10-24T08:32:16;15.80;99.90
9849;DHT22;4963;51.444;6.528;2022-10-24T08:34:42;15.80;99.90
9849;DHT22;4963;51.444;6.528;2022-10-24T08:37:09;15.90;99.90
9849;DHT22;4963;51.444;6.528;2022-10-24T08:39:37;15.90;99.90
9849;DHT22;4963;51.444;6.528;2022-10-24T08:42:05;16.00;99.90
9849;DHT22;4963;51.444;6.528;2022-10-24T08:44:35;16.10;99.90
9849;DHT22;4963;51.444;6.528;2022-10-24T08:47:07;16.10;99.90
9849;DHT22;4963;51.444;6.528;2022-10-24T08:49:42;16.20;99.90
9849;DHT22;4963;51.444;6.528;2022-10-24T08:52:15;16.20;99.90
9849;DHT22;4963;51.444;6.528;2022-10-24T08:54:44;16.20;99.90
9849;DHT22;4963;51.444;6.528;2022-10-24T08:57:18;16.20;99.90
9849;DHT22;4963;51.444;6.528;2022-10-24T08:59:46;16.20;99.90
9849;DHT22;4963;51.444;6.528;2022-10-24T09:02:16;16.20;99.90
9849;DHT22;4963;51.444;6.528;2022-10-24T09:04:49;16.20;99.90
9849;DHT22;4963;51.444;6.528;2022-10-24T09:07:18;16.20;99.90
9849;DHT22;4963;51.444;6.528;2022-10-24T09:09:47;16.30;99.90
9849;DHT22;4963;51.444;6.528;2022-10-24T09:12:17;16.40;99.90
9849;DHT22;4963;51.444;6.528;2022-10-24T09:14:46;16.40;99.90
9849;DHT22;4963;51.444;6.528;2022-10-24T09:17:19;16.50;99.90
9849;DHT22;4963;51.444;6.528;2022-10-24T09:19:51;16.50;99.90
9849;DHT22;4963;51.444;6.528;2022-10-24T09:22:19;16.50;99.90
9849;DHT22;4963;51.444;6.528;2022-10-24T09:24:50;16.50;99.90
9849;DHT22;4963;51.444;6.528;2022-10-24T09:27:22;16.50;99.90
9849;DHT22;4963;51.444;6.528;2022-10-24T09:29:50;16.50;99.90
9849;DHT22;4963;51.444;6.528;2022-10-24T09:32:20;16.60;99.90
9849;DHT22;4963;51.444;6.528;2022-10-24T09:34:49;16.60;99.90
9849;DHT22;4963;51.444;6.528;2022-10-24T09:37:36;16.60;99.90
9849;DHT22;4963;51.444;6.528;2022-10-24T09:40:13;16.60;99.90
9849;DHT22;4963;51.444;6.528;2022-10-24T09:42:47;16.60;99.90
9849;DHT22;4963;51.444;6.528;2022-10-24T09:45:39;16.70;99.90
9849;DHT22;4963;51.444;6.528;2022-10-24T09:48:16;16.70;99.90
9849;DHT22;4963;51.444;6.528;2022-10-24T09:50:45;16.80;99.90
9849;DHT22;4963;51.444;6.528;2022-10-24T09:53:24;16.80;99.90
9849;DHT22;4963;51.444;6.528;2022-10-24T09:55:54;16.80;99.90
9849;DHT22;4963;51.444;6.528;2022-10-24T09:58:25;16.90;99.90
9849;DHT22;4963;51.444;6.528;2022-10-24T10:00:59;17.00;99.90
9849;DHT22;4963;51.444;6.528;2022-10-24T10:03:28;17.00;99.90
9849;DHT22;4963;51.444;6.528;2022-10-24T10:05:56;17.10;99.90
9849;DHT22;4963;51.444;6.528;2022-10-24T10:08:26;17.10;99.90
9849;DHT22;4963;51.444;6.528;2022-10-24T10:11:02;17.10;99.90
9849;DHT22;4963;51.444;6.528;2022-10-24T10:13:30;17.20;99.90
9849;DHT22;4963;51.444;6.528;2022-10-24T10:16:03;17.20;99.90
9849;DHT22;4963;51.444;6.528;2022-10-24T10:18:41;17.20;99.90
9849;DHT22;4963;51.444;6.528;2022-10-24T10:21:12;17.20;99.90
9849;DHT22;4963;51.444;6.528;2022-10-24T10:23:42;17.10;99.90
9849;DHT22;4963;51.444;6.528;2022-10-24T10:26:27;17.20;99.90
9849;DHT22;4963;51.444;6.528;2022-10-24T10:29:00;17.20;99.90
9849;DHT22;4963;51.444;6.528;2022-10-24T10:31:32;17.20;99.90
9849;DHT22;4963;51.444;6.528;2022-10-24T10:34:20;17.20;99.90
9849;DHT22;4963;51.444;6.528;2022-10-24T10:37:15;17.20;99.90
9849;DHT22;4963;51.444;6.528;2022-10-24T10:40:15;17.20;99.90
9849;DHT22;4963;51.444;6.528;2022-10-24T10:43:04;17.20;99.90
9849;DHT22;4963;51.444;6.528;2022-10-24T10:45:41;17.30;99.90
9849;DHT22;4963;51.444;6.528;2022-10-24T10:48:30;17.20;99.90
9849;DHT22;4963;51.444;6.528;2022-10-24T10:51:10;17.30;99.90
9849;DHT22;4963;51.444;6.528;2022-10-24T10:53:45;17.30;99.90
9849;DHT22;4963;51.444;6.528;2022-10-24T10:56:24;17.40;99.90
9849;DHT22;4963;51.444;6.528;2022-10-24T10:59:03;17.40;99.90
9849;DHT22;4963;51.444;6.528;2022-10-24T11:01:40;17.40;99.90
9849;DHT22;4963;51.444;6.528;2022-10-24T11:04:20;17.40;99.90
9849;DHT22;4963;51.444;6.528;2022-10-24T11:06:53;17.40;99.90
9849;DHT22;4963;51.444;6.528;2022-10-24T11:09:28;17.30;99.90
9849;DHT22;4963;51.444;6.528;2022-10-24T11:12:11;17.30;99.90
9849;DHT22;4963;51.444;6.528;2022-10-24T11:14:41;17.30;99.90
9849;DHT22;4963;51.444;6.528;2022-10-24T11:17:15;17.40;99.90
9849;DHT22;4963;51.444;6.528;2022-10-24T11:19:49;17.40;99.90
9849;DHT22;4963;51.444;6.528;2022-10-24T11:22:23;17.50;99.90
9849;DHT22;4963;51.444;6.528;2022-10-24T11:24:56;17.50;99.90
9849;DHT22;4963;51.444;6.528;2022-10-24T11:27:28;17.50;99.90
9849;DHT22;4963;51.444;6.528;2022-10-24T11:30:03;17.50;99.90
9849;DHT22;4963;51.444;6.528;2022-10-24T11:32:34;17.50;99.90
9849;DHT22;4963;51.444;6.528;2022-10-24T11:35:06;17.50;99.90
9849;DHT22;4963;51.444;6.528;2022-10-24T11:37:44;17.40;99.90
9849;DHT22;4963;51.444;6.528;2022-10-24T11:40:14;17.40;99.90
9849;DHT22;4963;51.444;6.528;2022-10-24T11:42:47;17.40;99.90
9849;DHT22;4963;51.444;6.528;2022-10-24T11:45:18;17.30;99.90
9849;DHT22;4963;51.444;6.528;2022-10-24T11:47:52;17.30;99.90
9849;DHT22;4963;51.444;6.528;2022-10-24T11:50:24;17.30;99.90
9849;DHT22;4963;51.444;6.528;2022-10-24T11:52:57;17.40;99.90
9849;DHT22;4963;51.444;6.528;2022-10-24T11:55:29;17.40;99.90
9849;DHT22;4963;51.444;6.528;2022-10-24T11:58:03;17.40;99.90
9849;DHT22;4963;51.444;6.528;2022-10-24T12:00:44;17.40;99.90
9849;DHT22;4963;51.444;6.528;2022-10-24T12:03:40;17.50;99.90
9849;DHT22;4963;51.444;6.528;2022-10-24T12:06:27;17.50;99.90
9849;DHT22;4963;51.444;6.528;2022-10-24T12:12:12;17.50;99.90
9849;DHT22;4963;51.444;6.528;2022-10-24T12:15:00;17.50;99.90
9849;DHT22;4963;51.444;6.528;2022-10-24T12:17:48;17.60;99.90
9849;DHT22;4963;51.444;6.528;2022-10-24T12:20:20;17.60;99.90
9849;DHT22;4963;51.444;6.528;2022-10-24T12:22:49;17.60;99.90
9849;DHT22;4963;51.444;6.528;2022-10-24T12:25:25;17.60;99.90
9849;DHT22;4963;51.444;6.528;2022-10-24T12:27:54;17.60;99.90
9849;DHT22;4963;51.444;6.528;2022-10-24T12:30:24;17.60;99.90
9849;DHT22;4963;51.444;6.528;2022-10-24T12:32:55;17.60;99.90
9849;DHT22;4963;51.444;6.528;2022-10-24T12:35:50;17.60;99.90
9849;DHT22;4963;51.444;6.528;2022-10-24T12:41:43;17.60;99.90
9849;DHT22;4963;51.444;6.528;2022-10-24T12:44:43;17.60;99.90
9849;DHT22;4963;51.444;6.528;2022-10-24T12:50:52;17.50;99.90
9849;DHT22;4963;51.444;6.528;2022-10-24T12:53:58;17.50;99.90
9849;DHT22;4963;51.444;6.528;2022-10-24T12:56:27;17.30;99.90
9849;DHT22;4963;51.444;6.528;2022-10-24T12:58:57;17.20;99.90
9849;DHT22;4963;51.444;6.528;2022-10-24T13:01:28;17.10;99.90
9849;DHT22;4963;51.444;6.528;2022-10-24T13:09:59;16.70;99.90
9849;DHT22;4963;51.444;6.528;2022-10-24T13:12:42;16.70;99.90
9849;DHT22;4963;51.444;6.528;2022-10-24T13:15:28;16.60;99.90
9849;DHT22;4963;51.444;6.528;2022-10-24T13:18:06;16.50;99.90
9849;DHT22;4963;51.444;6.528;2022-10-24T13:20:37;16.50;99.90
9849;DHT22;4963;51.444;6.528;2022-10-24T13:23:12;16.40;99.90
9849;DHT22;4963;51.444;6.528;2022-10-24T13:25:40;16.40;99.90
9849;DHT22;4963;51.444;6.528;2022-10-24T13:28:37;16.50;99.90
9849;DHT22;4963;51.444;6.528;2022-10-24T13:34:20;16.50;99.90
9849;DHT22;4963;51.444;6.528;2022-10-24T13:36:51;16.50;99.90
9849;DHT22;4963;51.444;6.528;2022-10-24T13:39:23;16.50;99.90
9849;DHT22;4963;51.444;6.528;2022-10-24T13:41:57;16.40;99.90
9849;DHT22;4963;51.444;6.528;2022-10-24T13:44:28;16.30;99.90
9849;DHT22;4963;51.444;6.528;2022-10-24T13:47:00;16.20;99.90
9849;DHT22;4963;51.444;6.528;2022-10-24T13:49:31;16.20;99.90
9849;DHT22;4963;51.444;6.528;2022-10-24T13:52:02;16.10;99.90
9849;DHT22;4963;51.444;6.528;2022-10-24T13:54:35;16.00;99.90
9849;DHT22;4963;51.444;6.528;2022-10-24T13:57:02;16.00;99.90
9849;DHT22;4963;51.444;6.528;2022-10-24T13:59:30;15.90;99.90
9849;DHT22;4963;51.444;6.528;2022-10-24T14:01:59;15.90;99.90
9849;DHT22;4963;51.444;6.528;2022-10-24T14:04:29;15.90;99.90
9849;DHT22;4963;51.444;6.528;2022-10-24T14:07:01;15.90;99.90
9849;DHT22;4963;51.444;6.528;2022-10-24T14:09:29;15.90;99.90
9849;DHT22;4963;51.444;6.528;2022-10-24T14:11:56;15.90;99.90
9849;DHT22;4963;51.444;6.528;2022-10-24T14:14:27;15.80;99.90
9849;DHT22;4963;51.444;6.528;2022-10-24T14:17:05;15.70;99.90
9849;DHT22;4963;51.444;6.528;2022-10-24T14:19:33;15.70;99.90
9849;DHT22;4963;51.444;6.528;2022-10-24T14:22:17;15.60;99.90
9849;DHT22;4963;51.444;6.528;2022-10-24T14:24:45;15.60;99.90
9849;DHT22;4963;51.444;6.528;2022-10-24T14:27:12;15.60;99.90
9849;DHT22;4963;51.444;6.528;2022-10-24T14:29:50;15.50;99.90
9849;DHT22;4963;51.444;6.528;2022-10-24T14:32:18;15.50;99.90
9849;DHT22;4963;51.444;6.528;2022-10-24T14:34:47;15.50;99.90
9849;DHT22;4963;51.444;6.528;2022-10-24T14:37:16;15.50;99.90
9849;DHT22;4963;51.444;6.528;2022-10-24T14:39:45;15.50;99.90
9849;DHT22;4963;51.444;6.528;2022-10-24T14:42:13;15.40;99.90
9849;DHT22;4963;51.444;6.528;2022-10-24T14:44:41;15.40;99.90
9849;DHT22;4963;51.444;6.528;2022-10-24T14:47:20;15.30;99.90
9849;DHT22;4963;51.444;6.528;2022-10-24T14:49:50;15.40;99.90
9849;DHT22;4963;51.444;6.528;2022-10-24T14:52:21;15.30;99.90
9849;DHT22;4963;51.444;6.528;2022-10-24T14:54:57;15.30;99.90
9849;DHT22;4963;51.444;6.528;2022-10-24T14:57:27;15.30;99.90
9849;DHT22;4963;51.444;6.528;2022-10-24T14:59:56;15.30;99.90
9849;DHT22;4963;51.444;6.528;2022-10-24T15:02:25;15.30;99.90
9849;DHT22;4963;51.444;6.528;2022-10-24T15:05:26;15.40;99.90
9849;DHT22;4963;51.444;6.528;2022-10-24T15:07:56;15.40;99.90
9849;DHT22;4963;51.444;6.528;2022-10-24T15:10:28;15.40;99.90
9849;DHT22;4963;51.444;6.528;2022-10-24T15:13:00;15.40;99.90
9849;DHT22;4963;51.444;6.528;2022-10-24T15:15:29;15.50;99.90
9849;DHT22;4963;51.444;6.528;2022-10-24T15:17:58;15.50;99.90
9849;DHT22;4963;51.444;6.528;2022-10-24T15:20:27;15.50;99.90
9849;DHT22;4963;51.444;6.528;2022-10-24T15:22:59;15.50;99.90
9849;DHT22;4963;51.444;6.528;2022-10-24T15:25:29;15.50;99.90
9849;DHT22;4963;51.444;6.528;2022-10-24T15:27:58;15.60;99.90
9849;DHT22;4963;51.444;6.528;2022-10-24T15:30:28;15.50;99.90
9849;DHT22;4963;51.444;6.528;2022-10-24T15:32:57;15.50;99.90
9849;DHT22;4963;51.444;6.528;2022-10-24T15:35:25;15.50;99.90
9849;DHT22;4963;51.444;6.528;2022-10-24T15:37:53;15.50;99.90
9849;DHT22;4963;51.444;6.528;2022-10-24T15:40:23;15.50;99.90
9849;DHT22;4963;51.444;6.528;2022-10-24T15:42:50;15.50;99.90
9849;DHT22;4963;51.444;6.528;2022-10-24T15:45:18;15.50;99.90
9849;DHT22;4963;51.444;6.528;2022-10-24T15:47:45;15.50;99.90
9849;DHT22;4963;51.444;6.528;2022-10-24T15:50:13;15.40;99.90
9849;DHT22;4963;51.444;6.528;2022-10-24T15:52:46;15.40;99.90
9849;DHT22;4963;51.444;6.528;2022-10-24T15:55:17;15.30;99.90
9849;DHT22;4963;51.444;6.528;2022-10-24T15:57:44;15.30;99.90
9849;DHT22;4963;51.444;6.528;2022-10-24T16:00:13;15.30;99.90
9849;DHT22;4963;51.444;6.528;2022-10-24T16:02:40;15.30;99.90
9849;DHT22;4963;51.444;6.528;2022-10-24T16:05:13;15.20;99.90
9849;DHT22;4963;51.444;6.528;2022-10-24T16:07:42;15.30;99.90
9849;DHT22;4963;51.444;6.528;2022-10-24T16:10:11;15.30;99.90
9849;DHT22;4963;51.444;6.528;2022-10-24T16:12:39;15.20;99.90
9849;DHT22;4963;51.444;6.528;2022-10-24T16:15:09;15.30;99.90
9849;DHT22;4963;51.444;6.528;2022-10-24T16:17:43;15.30;99.90
9849;DHT22;4963;51.444;6.528;2022-10-24T16:20:10;15.20;99.90
9849;DHT22;4963;51.444;6.528;2022-10-24T16:22:37;15.20;99.90
9849;DHT22;4963;51.444;6.528;2022-10-24T16:25:06;15.10;99.90
9849;DHT22;4963;51.444;6.528;2022-10-24T16:27:33;15.10;99.90
9849;DHT22;4963;51.444;6.528;2022-10-24T16:30:00;15.10;99.90
9849;DHT22;4963;51.444;6.528;2022-10-24T16:32:26;15.10;99.90
9849;DHT22;4963;51.444;6.528;2022-10-24T16:34:53;15.10;99.90
9849;DHT22;4963;51.444;6.528;2022-10-24T16:37:22;15.10;99.90
9849;DHT22;4963;51.444;6.528;2022-10-24T16:39:48;15.10;99.90
9849;DHT22;4963;51.444;6.528;2022-10-24T16:42:16;15.00;99.90
9849;DHT22;4963;51.444;6.528;2022-10-24T16:44:44;15.00;99.90